Pagina principale
METAR-TAF:

METAR-TAF

Aeroporti :

Aeroporto Internazionale Regina Alia

Amman-Queen Alia, Giordania

latitudine: 31-40N, longitudine: 035-58E, altezza: 721 m

Osservazione

Il bollettino è stato emesso 44 minuti fa, alle 04:00 UTC
Vento 4 kt da nord
Temperature 23°C
Umidità 36%
Pressione 1013 hPa
Visibilità: 6000 m

METAR: OJAI 200400Z 36004KT 6000 NSC 23/07 Q1013 NOSIG

Ora: 07:44 (04:44 UTC)

Previsione

Il bollettino è stato emesso 5 ore e 51 minuti fa, alle 22:53 UTC
Previsione valida dal 20 alle 00 UTC al 21 alle 06 UTC
Vento 6 kt da ovest/nord-ovest
Visibilità: 6000 m
Probabilità 40% :
Temporaneamente
dal 20 alle 12 UTC al 20 alle 15 UTC
Vento 12 kt da ovest
Visibilità: 5000 m
foschia

TAF: OJAI 192253Z 2000/2106 30006KT 6000 NSC PROB40 TEMPO 2012/2015 28012KT 5000 HZ

Osservazioni e previsioni meteorologiche di più di 4000 aeroporti (messaggi METAR e TAF).

Le stazioni disponibili sono rappresentate dai dischi gialli e rossi sulla carta.

Puntare il mouse per vedere il nome della stazione.

Clicca sopra per visualizzare le osservazioni e previsioni meteorologiche.

Per cambiare la mappa : fare clic sui pulsanti verdi con una croce nera per ingrandire, il pulsante verde con un trattino per diminuire, o sulla freccia verde per le mappe adiacenti.


METAR-TAF: